Terminal Aerodrome Forecast
Issued by NWS

Home | Current Version | Previous Version | Text Only | Print | Product List | Glossary On
Versions: 1 2 3 4 5 6 7 8 9 10 11 12 13
480
FTUS44 KSJT 231433 AAA
TAFBBD
TAF AMD
KBBD 231433Z 2315/2412 15010KT P6SM SCT015
     FM231700 14014G22KT P6SM BKN050
     FM240200 14012KT P6SM BKN040
     FM240800 14009KT P6SM BKN015
      AMD NOT SKED=

USA.gov is the U.S. government's official web portal to all federal, state and local government web resources and services.